Time;durP1;ratioP1;P1;durP2;ratioP2;P2;SDS_P1;SDS_P2;PMS_P1;PMS_P2;Temp;Humidity;BMP_temperature;BMP_pressure;BME280_temperature;BME280_humidity;BME280_pressure;Samples;Min_cycle;Max_cycle;Signal;HPM_P1;HPM_P2
2023/02/07 00:00:39;;;;;;;17.47;11.60;;;;;;;-1.84;100.00;104354.22;5053005;28;20266;-64
2023/02/07 00:03:05;;;;;;;22.37;11.93;;;;;;;-1.86;100.00;104347.22;5053387;28;20612;-66
2023/02/07 00:05:31;;;;;;;17.67;12.13;;;;;;;-1.85;100.00;104336.47;5059612;28;20698;-64
2023/02/07 00:07:56;;;;;;;16.77;11.27;;;;;;;-1.83;100.00;104327.53;5054677;28;20233;-64
2023/02/07 00:10:22;;;;;;;16.97;11.73;;;;;;;-1.85;100.00;104319.78;5060509;28;20250;-67
2023/02/07 00:12:48;;;;;;;17.90;12.07;;;;;;;-1.89;100.00;104314.22;5054138;28;20255;-67
2023/02/07 00:15:15;;;;;;;20.13;12.47;;;;;;;-1.88;100.00;104321.03;5058372;28;20564;-66
2023/02/07 00:17:40;;;;;;;18.67;12.13;;;;;;;-1.92;100.00;104322.25;5056225;28;20443;-66
2023/02/07 00:20:06;;;;;;;19.43;12.47;;;;;;;-1.96;100.00;104321.69;5054794;28;20589;-66
2023/02/07 00:22:32;;;;;;;18.17;11.00;;;;;;;-2.02;100.00;104328.47;5057834;28;20201;-66
2023/02/07 00:24:57;;;;;;;21.63;11.43;;;;;;;-2.07;100.00;104327.00;5058055;28;20463;-64
2023/02/07 00:27:23;;;;;;;19.50;11.60;;;;;;;-2.16;100.00;104324.22;5060884;28;20193;-64
2023/02/07 00:29:48;;;;;;;19.00;11.70;;;;;;;-2.17;100.00;104326.50;5061328;28;20670;-64
2023/02/07 00:32:14;;;;;;;22.00;12.00;;;;;;;-2.23;100.00;104328.25;5058194;28;20197;-66
2023/02/07 00:34:40;;;;;;;18.43;11.67;;;;;;;-2.23;100.00;104339.22;5040932;28;20204;-67
2023/02/07 00:37:06;;;;;;;17.47;11.23;;;;;;;-2.24;100.00;104341.53;5050552;28;20541;-67
2023/02/07 00:39:32;;;;;;;14.63;10.97;;;;;;;-2.30;100.00;104345.78;5056005;28;20203;-64
2023/02/07 00:41:57;;;;;;;15.60;10.60;;;;;;;-2.33;100.00;104338.78;5035385;28;20682;-66
2023/02/07 00:44:23;;;;;;;16.83;10.60;;;;;;;-2.40;100.00;104337.78;5038155;28;20443;-65
2023/02/07 00:46:50;;;;;;;22.73;11.10;;;;;;;-2.42;100.00;104332.59;5054894;28;20213;-66
2023/02/07 00:49:16;;;;;;;14.27;9.90;;;;;;;-2.44;100.00;104340.63;5034031;28;20546;-64
2023/02/07 00:51:42;;;;;;;17.60;10.83;;;;;;;-2.49;100.00;104345.03;5043562;28;20526;-64
2023/02/07 00:54:07;;;;;;;15.93;11.27;;;;;;;-2.48;100.00;104343.44;5048722;28;20224;-64
2023/02/07 00:56:34;;;;;;;17.53;10.97;;;;;;;-2.50;100.00;104349.84;5054298;28;20262;-65
2023/02/07 00:58:59;;;;;;;17.50;11.53;;;;;;;-2.55;100.00;104341.75;5055639;28;20444;-64
2023/02/07 01:01:26;;;;;;;17.50;11.07;;;;;;;-2.59;100.00;104339.56;5043309;28;20232;-64
2023/02/07 01:03:54;;;;;;;16.73;10.20;;;;;;;-2.58;100.00;104335.47;5041735;28;20185;-63
2023/02/07 01:06:20;;;;;;;16.60;10.37;;;;;;;-2.58;100.00;104330.44;5054013;28;20475;-66
2023/02/07 01:08:46;;;;;;;14.03;10.10;;;;;;;-2.51;100.00;104331.41;5059805;28;20189;-65
2023/02/07 01:11:15;;;;;;;14.60;10.20;;;;;;;-2.48;100.00;104323.38;5055098;28;20493;-65
2023/02/07 01:13:42;;;;;;;13.80;10.50;;;;;;;-2.51;100.00;104320.47;5035544;28;20447;-65
2023/02/07 01:16:20;;;;;;;13.73;10.30;;;;;;;-2.51;100.00;104318.88;5029189;28;20460;-66
2023/02/07 01:18:46;;;;;;;14.10;10.40;;;;;;;-2.56;100.00;104313.97;5030671;28;20947;-66
2023/02/07 01:21:17;;;;;;;14.70;10.17;;;;;;;-2.58;100.00;104316.28;5048627;28;20534;-66
2023/02/07 01:23:43;;;;;;;17.27;11.70;;;;;;;-2.58;100.00;104311.28;5032902;28;20473;-63
2023/02/07 01:26:08;;;;;;;16.13;10.20;;;;;;;-2.61;100.00;104310.00;5032433;28;20485;-66
2023/02/07 01:28:34;;;;;;;16.67;11.10;;;;;;;-2.64;100.00;104309.59;5037837;28;20300;-66
2023/02/07 01:30:59;;;;;;;16.13;10.60;;;;;;;-2.69;100.00;104306.53;5053019;28;20225;-63
2023/02/07 01:33:25;;;;;;;18.63;10.83;;;;;;;-2.70;100.00;104313.84;5044620;28;20658;-63
2023/02/07 01:35:51;;;;;;;18.43;10.70;;;;;;;-2.77;100.00;104313.75;5053259;28;20463;-64
2023/02/07 01:38:16;;;;;;;17.80;10.10;;;;;;;-2.80;100.00;104314.25;5050906;28;20655;-63
2023/02/07 01:40:42;;;;;;;17.30;10.53;;;;;;;-2.78;100.00;104310.38;5051558;28;20650;-64
2023/02/07 01:43:16;;;;;;;16.53;10.43;;;;;;;-2.80;100.00;104311.75;5038480;28;20197;-64
2023/02/07 01:45:42;;;;;;;17.60;10.80;;;;;;;-2.80;100.00;104313.38;5034598;28;20226;-64
2023/02/07 01:48:15;;;;;;;15.77;10.53;;;;;;;-2.82;100.00;104317.28;5038378;28;20455;-64
2023/02/07 01:50:44;;;;;;;14.93;9.63;;;;;;;-2.90;100.00;104321.31;5050907;28;20209;-63
2023/02/07 01:53:13;;;;;;;14.47;9.73;;;;;;;-2.92;100.00;104315.22;5044679;28;20448;-63
2023/02/07 01:55:41;;;;;;;16.33;10.57;;;;;;;-2.89;100.00;104323.09;5036510;28;21149;-63
2023/02/07 01:58:08;;;;;;;14.83;10.97;;;;;;;-2.83;100.00;104325.50;5051172;28;20456;-64
2023/02/07 02:00:35;;;;;;;16.63;11.00;;;;;;;-2.73;100.00;104321.88;5056829;28;20901;-65
2023/02/07 02:03:01;;;;;;;16.30;11.40;;;;;;;-2.76;100.00;104328.09;5052109;28;20565;-63
2023/02/07 02:05:29;;;;;;;17.23;11.43;;;;;;;-2.75;100.00;104322.38;5053521;28;21003;-64
2023/02/07 02:07:55;;;;;;;18.57;11.37;;;;;;;-2.77;100.00;104318.75;5038102;28;20805;-64
2023/02/07 02:10:25;;;;;;;16.77;10.33;;;;;;;-2.78;100.00;104304.44;5038982;28;20456;-64
2023/02/07 02:13:06;;;;;;;19.17;12.17;;;;;;;-2.80;100.00;104311.75;5038474;28;20270;-64
2023/02/07 02:15:51;;;;;;;19.40;12.10;;;;;;;-2.78;100.00;104309.44;5052579;28;20463;-64
2023/02/07 02:18:43;;;;;;;18.70;11.23;;;;;;;-2.83;100.00;104318.00;5044426;28;20450;-64
2023/02/07 02:21:46;;;;;;;17.97;10.87;;;;;;;-2.89;100.00;104309.69;5036955;28;20460;-63
2023/02/07 02:24:33;;;;;;;18.03;10.90;;;;;;;-2.92;100.00;104309.28;5033780;28;20444;-64
2023/02/07 02:27:16;;;;;;;19.43;11.67;;;;;;;-3.00;100.00;104317.41;5054828;28;20524;-63
2023/02/07 02:30:08;;;;;;;21.90;11.80;;;;;;;-3.03;100.00;104312.91;5045946;28;20532;-64
2023/02/07 02:32:59;;;;;;;18.97;11.00;;;;;;;-3.02;100.00;104318.84;5056643;28;20454;-63
2023/02/07 02:36:02;;;;;;;19.53;10.80;;;;;;;-3.04;100.00;104317.75;5042926;28;20466;-64
2023/02/07 02:38:52;;;;;;;18.07;10.50;;;;;;;-3.10;100.00;104314.44;5043879;28;20842;-64
2023/02/07 02:41:27;;;;;;;16.50;11.07;;;;;;;-3.15;100.00;104317.97;5042928;28;20475;-64
2023/02/07 02:44:03;;;;;;;19.63;11.40;;;;;;;-3.17;100.00;104306.84;5042191;28;20482;-64
2023/02/07 02:46:35;;;;;;;16.40;10.60;;;;;;;-3.20;100.00;104307.38;5047737;28;20821;-63
2023/02/07 02:49:02;;;;;;;15.40;10.77;;;;;;;-3.23;100.00;104306.03;5071528;28;20459;-65
2023/02/07 02:51:29;;;;;;;15.20;9.93;;;;;;;-3.24;100.00;104301.75;5041466;28;20431;-63
2023/02/07 02:53:56;;;;;;;16.97;10.13;;;;;;;-3.26;100.00;104299.03;5041878;28;20811;-63
2023/02/07 02:57:04;;;;;;;16.63;10.67;;;;;;;-3.28;100.00;104302.97;5039818;28;20471;-64
2023/02/07 02:59:51;;;;;;;16.53;9.80;;;;;;;-3.35;100.00;104301.97;4950972;28;20455;-63
2023/02/07 03:02:22;;;;;;;17.53;10.03;;;;;;;-3.39;100.00;104294.75;5068581;28;20497;-63
2023/02/07 03:05:07;;;;;;;16.10;9.93;;;;;;;-3.36;100.00;104295.16;5042784;28;20432;-64
2023/02/07 03:07:45;;;;;;;17.57;9.97;;;;;;;-3.37;100.00;104295.84;5044482;28;20802;-63
2023/02/07 03:10:16;;;;;;;15.73;10.70;;;;;;;-3.42;100.00;104300.28;5030256;28;20444;-63
2023/02/07 03:12:44;;;;;;;16.43;10.40;;;;;;;-3.45;100.00;104293.97;5061531;28;20454;-63
2023/02/07 03:15:23;;;;;;;17.30;11.03;;;;;;;-3.48;100.00;104291.06;5045838;28;20857;-63
2023/02/07 03:17:56;;;;;;;17.80;10.77;;;;;;;-3.52;100.00;104292.28;5042388;28;20439;-64
2023/02/07 03:20:29;;;;;;;17.20;10.83;;;;;;;-3.56;100.00;104287.56;5042735;28;20475;-64
2023/02/07 03:22:59;;;;;;;14.90;9.40;;;;;;;-3.57;100.00;104284.84;5057990;28;20447;-63
2023/02/07 03:25:27;;;;;;;15.43;10.13;;;;;;;-3.58;100.00;104278.94;5045209;28;20972;-63
2023/02/07 03:27:54;;;;;;;18.90;10.87;;;;;;;-3.58;100.00;104278.06;5040271;28;20968;-64
2023/02/07 03:30:23;;;;;;;17.40;10.50;;;;;;;-3.61;100.00;104283.56;5056043;28;20440;-63
2023/02/07 03:32:53;;;;;;;16.17;10.07;;;;;;;-3.57;100.00;104282.34;5059081;28;20496;-64
2023/02/07 03:35:41;;;;;;;16.93;10.53;;;;;;;-3.57;100.00;104270.75;5058360;28;20468;-65
2023/02/07 03:38:07;;;;;;;16.83;10.33;;;;;;;-3.49;100.00;104264.22;5057545;28;20459;-63
2023/02/07 03:40:41;;;;;;;16.07;10.87;;;;;;;-3.40;100.00;104258.78;5056843;28;20470;-64
2023/02/07 03:43:15;;;;;;;16.77;10.83;;;;;;;-3.43;100.00;104263.44;5054230;28;20456;-64
2023/02/07 03:45:42;;;;;;;19.07;10.93;;;;;;;-3.48;100.00;104266.94;5059480;28;20461;-64
2023/02/07 03:48:08;;;;;;;17.77;10.33;;;;;;;-3.51;100.00;104260.59;5052923;28;20515;-63
2023/02/07 03:50:33;;;;;;;19.27;10.67;;;;;;;-3.49;100.00;104257.59;5054234;28;21207;-63
2023/02/07 03:52:59;;;;;;;17.23;11.07;;;;;;;-3.53;100.00;104252.00;5051079;28;20452;-64
2023/02/07 03:55:24;;;;;;;16.90;10.83;;;;;;;-3.52;100.00;104251.31;5051065;28;20244;-63
2023/02/07 03:57:50;;;;;;;18.87;10.87;;;;;;;-3.54;100.00;104235.19;5055929;28;20310;-63
2023/02/07 04:00:15;;;;;;;17.57;10.93;;;;;;;-3.56;100.00;104245.00;5055440;28;20222;-63
2023/02/07 04:02:41;;;;;;;21.20;11.43;;;;;;;-3.60;100.00;104236.88;5058796;28;20259;-64
2023/02/07 04:05:07;;;;;;;18.73;11.70;;;;;;;-3.60;100.00;104225.28;5054431;28;20222;-64
2023/02/07 04:07:33;;;;;;;17.80;11.87;;;;;;;-3.55;100.00;104221.78;5061399;28;20251;-64
2023/02/07 04:09:58;;;;;;;19.53;11.77;;;;;;;-3.54;100.00;104226.06;5061210;28;20443;-63
2023/02/07 04:12:25;;;;;;;18.90;12.23;;;;;;;-3.40;100.00;104221.22;5062252;28;20250;-63
2023/02/07 04:14:50;;;;;;;24.97;13.73;;;;;;;-3.32;100.00;104224.75;5056904;28;20280;-64
2023/02/07 04:17:16;;;;;;;22.83;13.87;;;;;;;-3.34;100.00;104226.13;5054658;28;20562;-63
2023/02/07 04:19:41;;;;;;;22.90;13.57;;;;;;;-3.35;100.00;104229.34;5060384;28;20230;-63
2023/02/07 04:22:09;;;;;;;20.73;13.37;;;;;;;-3.36;100.00;104225.06;5044679;28;20233;-65
2023/02/07 04:24:35;;;;;;;24.80;12.90;;;;;;;-3.40;100.00;104233.75;5056901;28;20272;-64
2023/02/07 04:27:00;;;;;;;27.50;15.83;;;;;;;-3.36;100.00;104240.97;5050114;28;20744;-66
2023/02/07 04:29:26;;;;;;;26.13;14.90;;;;;;;-3.29;100.00;104247.66;5053687;28;20651;-63
2023/02/07 04:31:51;;;;;;;27.10;15.40;;;;;;;-3.23;100.00;104241.84;5052301;28;20197;-64
2023/02/07 04:34:17;;;;;;;31.37;16.67;;;;;;;-3.18;100.00;104248.34;5057204;28;20197;-64
2023/02/07 04:36:42;;;;;;;28.50;16.17;;;;;;;-3.16;100.00;104239.44;5044639;28;20271;-63
2023/02/07 04:39:08;;;;;;;39.97;19.37;;;;;;;-3.15;100.00;104230.28;5051333;28;20198;-64
2023/02/07 04:41:33;;;;;;;37.33;18.27;;;;;;;-3.13;100.00;104226.38;5058392;28;20210;-66
2023/02/07 04:43:58;;;;;;;42.33;17.97;;;;;;;-3.10;100.00;104221.75;5032680;28;20617;-65
2023/02/07 04:46:24;;;;;;;47.93;20.40;;;;;;;-3.06;100.00;104223.94;5051473;28;20212;-65
2023/02/07 04:48:49;;;;;;;60.10;20.63;;;;;;;-3.12;100.00;104219.03;5052876;28;20669;-63
2023/02/07 04:51:15;;;;;;;48.30;21.30;;;;;;;-3.12;100.00;104229.06;5054259;28;20232;-63
2023/02/07 04:53:40;;;;;;;72.23;22.10;;;;;;;-3.09;100.00;104226.09;5060876;28;20197;-66
2023/02/07 04:56:06;;;;;;;51.83;22.10;;;;;;;-3.04;100.00;104235.97;5054835;28;20224;-64
2023/02/07 04:58:31;;;;;;;51.43;21.37;;;;;;;-3.00;100.00;104235.66;5050241;28;20203;-63
2023/02/07 05:00:57;;;;;;;51.73;21.30;;;;;;;-2.93;100.00;104235.72;5048801;28;20560;-63
2023/02/07 05:03:22;;;;;;;72.27;23.10;;;;;;;-2.94;100.00;104235.53;5055191;28;20717;-64
2023/02/07 05:05:48;;;;;;;63.47;23.50;;;;;;;-2.92;100.00;104235.03;5056458;28;20201;-64
2023/02/07 05:08:14;;;;;;;70.07;24.17;;;;;;;-2.85;100.00;104236.69;5056742;28;20190;-64
2023/02/07 05:10:40;;;;;;;69.67;25.03;;;;;;;-2.82;100.00;104232.97;5057961;28;20187;-63
2023/02/07 05:13:06;;;;;;;52.53;24.67;;;;;;;-2.82;100.00;104234.56;5057891;28;20282;-64
2023/02/07 05:15:32;;;;;;;59.60;24.07;;;;;;;-2.78;100.00;104229.22;5051031;28;20465;-63
2023/02/07 05:17:58;;;;;;;64.50;26.63;;;;;;;-2.77;100.00;104219.41;5050142;28;20449;-64
2023/02/07 05:20:24;;;;;;;66.40;25.43;;;;;;;-2.75;100.00;104239.66;5055339;28;20251;-64
2023/02/07 05:22:50;;;;;;;54.83;25.23;;;;;;;-2.74;100.00;104243.97;5055093;28;20185;-63
2023/02/07 05:25:16;;;;;;;50.80;23.40;;;;;;;-2.68;100.00;104252.25;5048733;28;20478;-64
2023/02/07 05:27:41;;;;;;;51.03;23.97;;;;;;;-2.67;100.00;104257.47;5058758;28;20215;-64
2023/02/07 05:30:07;;;;;;;64.83;24.60;;;;;;;-2.70;100.00;104251.16;5050113;28;20225;-65
2023/02/07 05:35:17;;;;;;;64.87;23.80;;;;;;;-2.67;100.00;104274.13;5055495;28;20470;-63
2023/02/07 05:37:42;;;;;;;61.87;23.80;;;;;;;-2.68;100.00;104272.31;5061440;28;20447;-64
2023/02/07 05:40:08;;;;;;;54.20;24.23;;;;;;;-2.69;100.00;104273.94;5054668;28;20683;-63
2023/02/07 05:42:34;;;;;;;58.23;24.30;;;;;;;-2.66;100.00;104273.41;5061878;28;20186;-63
2023/02/07 05:44:59;;;;;;;60.33;24.57;;;;;;;-2.65;100.00;104278.63;5052549;28;20536;-64
2023/02/07 05:47:25;;;;;;;61.27;23.90;;;;;;;-2.62;100.00;104279.00;5054074;28;20186;-64
2023/02/07 05:49:50;;;;;;;52.87;23.37;;;;;;;-2.61;100.00;104288.34;5063418;28;20235;-64
2023/02/07 05:52:16;;;;;;;65.33;27.30;;;;;;;-2.60;100.00;104282.63;5055380;28;20202;-64
2023/02/07 05:54:41;;;;;;;55.50;24.83;;;;;;;-2.61;100.00;104282.41;5063123;28;20284;-64
2023/02/07 05:57:07;;;;;;;84.33;26.57;;;;;;;-2.57;100.00;104280.47;5045610;28;20213;-63
2023/02/07 05:59:32;;;;;;;54.50;23.77;;;;;;;-2.55;100.00;104288.19;5052731;28;20232;-64
2023/02/07 06:01:58;;;;;;;53.53;24.90;;;;;;;-2.52;100.00;104286.09;5051894;28;20242;-64
2023/02/07 06:04:23;;;;;;;53.80;24.20;;;;;;;-2.45;100.00;104288.63;5056894;28;20185;-65
2023/02/07 06:06:48;;;;;;;57.50;25.30;;;;;;;-2.48;100.00;104281.63;5062266;28;20602;-64
2023/02/07 06:09:14;;;;;;;60.30;25.20;;;;;;;-2.44;100.00;104288.84;5056720;28;20197;-64
2023/02/07 06:11:40;;;;;;;54.60;24.03;;;;;;;-2.45;100.00;104298.66;5055137;28;20216;-64
2023/02/07 06:14:05;;;;;;;55.23;24.27;;;;;;;-2.46;100.00;104295.28;5053393;28;20194;-63
2023/02/07 06:16:30;;;;;;;54.37;25.30;;;;;;;-2.47;100.00;104305.13;5061362;28;20629;-66
2023/02/07 06:18:56;;;;;;;59.57;24.77;;;;;;;-2.47;100.00;104307.63;5061104;28;20200;-64
2023/02/07 06:21:21;;;;;;;57.37;24.33;;;;;;;-2.45;100.00;104314.63;5056817;28;20312;-63
2023/02/07 06:23:48;;;;;;;57.17;24.80;;;;;;;-2.40;100.00;104325.22;5062555;28;20224;-63
2023/02/07 06:26:14;;;;;;;54.67;23.60;;;;;;;-2.48;100.00;104325.91;5053857;28;20205;-63
2023/02/07 06:28:39;;;;;;;56.93;24.83;;;;;;;-2.41;100.00;104328.44;5040800;28;20451;-63
2023/02/07 06:31:05;;;;;;;54.80;23.87;;;;;;;-2.43;100.00;104328.25;5057492;28;20448;-64
2023/02/07 06:33:30;;;;;;;50.00;23.97;;;;;;;-2.39;100.00;104330.44;5056707;28;20273;-63
2023/02/07 06:35:56;;;;;;;60.67;25.73;;;;;;;-2.42;100.00;104330.09;5062344;28;20215;-63
2023/02/07 06:38:21;;;;;;;57.83;25.13;;;;;;;-2.40;100.00;104330.25;5061659;28;20203;-63
2023/02/07 06:40:47;;;;;;;65.17;25.77;;;;;;;-2.43;100.00;104330.75;5055844;28;20216;-63
2023/02/07 06:43:12;;;;;;;57.97;25.70;;;;;;;-2.37;100.00;104321.53;5062905;28;20186;-63
2023/02/07 06:45:38;;;;;;;51.83;24.53;;;;;;;-2.35;100.00;104319.22;5056513;28;20722;-64
2023/02/07 06:48:03;;;;;;;52.60;23.23;;;;;;;-2.30;100.00;104325.72;5057367;28;20213;-65
2023/02/07 06:50:29;;;;;;;54.87;24.93;;;;;;;-2.28;100.00;104330.22;5058831;28;20200;-63
2023/02/07 06:53:00;;;;;;;52.23;23.77;;;;;;;-2.27;100.00;104326.06;5036972;28;20218;-64
2023/02/07 06:55:30;;;;;;;58.27;25.50;;;;;;;-2.27;100.00;104329.50;5034993;28;20484;-63
2023/02/07 06:57:56;;;;;;;50.77;23.00;;;;;;;-2.29;100.00;104325.88;5041834;28;20446;-64
2023/02/07 07:00:23;;;;;;;49.60;23.10;;;;;;;-2.25;100.00;104328.06;5058857;28;20545;-64
2023/02/07 07:02:49;;;;;;;51.90;24.03;;;;;;;-2.20;100.00;104322.00;5055452;28;20643;-64
2023/02/07 07:05:15;;;;;;;52.87;23.80;;;;;;;-2.22;100.00;104325.97;5059858;28;20522;-63
2023/02/07 07:07:40;;;;;;;52.40;23.47;;;;;;;-2.21;100.00;104335.28;5050016;28;20189;-64
2023/02/07 07:10:06;;;;;;;49.83;24.13;;;;;;;-2.21;100.00;104340.28;5051746;28;20667;-64
2023/02/07 07:12:32;;;;;;;48.57;22.40;;;;;;;-2.21;100.00;104337.78;5058875;28;20233;-65
2023/02/07 07:14:57;;;;;;;50.00;22.60;;;;;;;-2.17;100.00;104341.56;5061468;28;20287;-65
2023/02/07 07:17:23;;;;;;;49.93;22.40;;;;;;;-2.13;100.00;104338.75;5059540;28;20557;-66
2023/02/07 07:19:48;;;;;;;47.00;23.60;;;;;;;-2.09;100.00;104338.44;5045899;28;20185;-65
2023/02/07 07:22:14;;;;;;;46.43;22.60;;;;;;;-2.08;100.00;104346.16;5051383;28;20220;-64
2023/02/07 07:24:39;;;;;;;59.90;23.63;;;;;;;-2.13;100.00;104344.69;5052086;28;20672;-64
2023/02/07 07:27:04;;;;;;;66.63;23.47;;;;;;;-2.15;100.00;104340.19;5060388;28;20199;-63
2023/02/07 07:29:30;;;;;;;46.43;22.10;;;;;;;-2.07;100.00;104339.53;5064035;28;20544;-64
2023/02/07 07:31:55;;;;;;;49.70;23.20;;;;;;;-2.00;100.00;104342.09;5044905;28;20196;-64
2023/02/07 07:34:21;;;;;;;53.00;23.03;;;;;;;-2.03;100.00;104340.09;5060042;28;20217;-64
2023/02/07 07:36:47;;;;;;;55.43;24.43;;;;;;;-2.05;100.00;104349.06;5061532;28;20221;-64
2023/02/07 07:39:13;;;;;;;51.47;22.70;;;;;;;-2.08;100.00;104348.66;5058522;28;20197;-63
2023/02/07 07:41:39;;;;;;;50.20;21.80;;;;;;;-2.06;100.00;104341.31;5061566;28;20217;-64
2023/02/07 07:44:09;;;;;;;51.17;23.53;;;;;;;-2.09;100.00;104340.94;5041678;28;20468;-63
2023/02/07 07:46:34;;;;;;;50.97;23.20;;;;;;;-2.00;100.00;104342.09;5059956;28;20527;-64
2023/02/07 07:49:00;;;;;;;49.27;23.43;;;;;;;-2.09;100.00;104338.44;5057134;28;20188;-64
2023/02/07 07:51:25;;;;;;;62.53;22.50;;;;;;;-2.05;100.00;104345.63;5055250;28;20185;-64
2023/02/07 07:53:51;;;;;;;48.70;22.57;;;;;;;-2.01;100.00;104343.72;5057869;28;20238;-66
2023/02/07 07:56:16;;;;;;;47.60;22.47;;;;;;;-1.95;100.00;104344.47;5059051;28;20209;-64
2023/02/07 07:58:41;;;;;;;46.80;21.47;;;;;;;-1.95;100.00;104344.47;5064543;28;20662;-66
2023/02/07 08:01:07;;;;;;;71.77;24.53;;;;;;;-2.07;100.00;104337.91;5060898;28;20597;-65
2023/02/07 08:03:33;;;;;;;54.97;25.83;;;;;;;-1.99;100.00;104346.38;5061779;28;20316;-64
2023/02/07 08:05:59;;;;;;;61.90;26.00;;;;;;;-2.00;100.00;104337.97;5056869;28;20673;-63
2023/02/07 08:08:25;;;;;;;45.13;22.53;;;;;;;-1.94;100.00;104335.31;5061864;28;20440;-64
2023/02/07 08:10:51;;;;;;;50.53;21.93;;;;;;;-1.95;100.00;104344.47;5060005;28;20686;-64
2023/02/07 08:13:18;;;;;;;55.10;24.33;;;;;;;-1.90;100.00;104353.47;5061345;28;20447;-64
2023/02/07 08:15:44;;;;;;;53.17;23.03;;;;;;;-1.88;100.00;104346.13;5048282;28;20215;-63
2023/02/07 08:18:09;;;;;;;47.23;21.53;;;;;;;-1.81;100.00;104349.59;5060938;28;20439;-66
2023/02/07 08:20:35;;;;;;;41.93;21.10;;;;;;;-1.74;100.00;104347.13;5057243;28;20214;-65
2023/02/07 08:23:01;;;;;;;49.87;20.90;;;;;;;-1.68;100.00;104341.97;5061050;28;20238;-66
2023/02/07 08:25:26;;;;;;;58.03;22.60;;;;;;;-1.73;100.00;104343.00;5059534;28;20985;-65
2023/02/07 08:27:53;;;;;;;41.13;20.60;;;;;;;-1.71;100.00;104329.03;5061009;28;20262;-64
2023/02/07 08:30:19;;;;;;;46.00;22.03;;;;;;;-1.62;100.00;104325.13;5055749;28;20213;-64
2023/02/07 08:32:46;;;;;;;56.70;23.50;;;;;;;-1.54;100.00;104332.00;5057238;28;20501;-64
2023/02/07 08:35:11;;;;;;;51.67;21.73;;;;;;;-1.68;100.00;104329.41;5053431;28;20516;-64
2023/02/07 08:37:37;;;;;;;46.97;20.90;;;;;;;-1.76;100.00;104341.03;5063806;28;20981;-65
2023/02/07 08:40:04;;;;;;;54.03;23.77;;;;;;;-1.69;100.00;104345.19;5058880;28;20199;-62
2023/02/07 08:42:30;;;;;;;55.87;24.93;;;;;;;-1.58;100.00;104334.84;5055838;28;20185;-63
2023/02/07 08:44:55;;;;;;;47.43;22.47;;;;;;;-1.47;100.00;104332.06;5059018;28;20482;-66
2023/02/07 08:47:21;;;;;;;46.90;21.60;;;;;;;-1.40;100.00;104330.50;5054572;28;20194;-62
2023/02/07 08:49:47;;;;;;;45.80;21.30;;;;;;;-1.47;100.00;104340.50;5062027;28;20193;-64
2023/02/07 08:52:12;;;;;;;96.33;23.77;;;;;;;-1.61;100.00;104340.41;5061744;28;20193;-62
2023/02/07 08:54:38;;;;;;;86.30;22.87;;;;;;;-1.52;100.00;104339.03;5063280;28;20661;-63
2023/02/07 08:57:04;;;;;;;50.37;22.43;;;;;;;-1.55;100.00;104347.81;5059423;28;20559;-63
2023/02/07 08:59:29;;;;;;;44.70;21.70;;;;;;;-1.45;100.00;104346.63;5063282;28;20709;-65
2023/02/07 09:01:55;;;;;;;50.03;21.93;;;;;;;-1.36;100.00;104337.69;5068368;28;20467;-65
2023/02/07 09:04:20;;;;;;;51.23;22.97;;;;;;;-1.31;100.00;104336.66;5056800;28;20196;-64
2023/02/07 09:06:46;;;;;;;44.07;21.77;;;;;;;-1.23;100.00;104340.97;5063151;28;20213;-65
2023/02/07 09:09:11;;;;;;;47.63;23.50;;;;;;;-1.42;100.00;104336.94;5060075;28;20196;-64
2023/02/07 09:11:37;;;;;;;50.10;24.30;;;;;;;-1.32;100.00;104338.97;5061500;28;20196;-65
2023/02/07 09:14:02;;;;;;;50.23;23.73;;;;;;;-1.24;100.00;104341.69;5058911;28;20284;-65
2023/02/07 09:16:28;;;;;;;48.10;23.60;;;;;;;-1.08;100.00;104341.94;5051891;28;20236;-63
2023/02/07 09:18:53;;;;;;;48.63;22.00;;;;;;;-1.02;100.00;104336.06;5060590;28;20275;-64
2023/02/07 09:21:20;;;;;;;44.87;21.97;;;;;;;-1.06;100.00;104343.94;5059423;28;20225;-64
2023/02/07 09:23:45;;;;;;;44.10;22.90;;;;;;;-1.19;100.00;104347.28;5063951;28;20208;-64
2023/02/07 09:26:17;;;;;;;49.90;24.33;;;;;;;-1.10;100.00;104355.97;5062785;28;20482;-64
2023/02/07 09:28:42;;;;;;;49.67;23.60;;;;;;;-1.27;100.00;104361.44;5062817;28;20208;-64
2023/02/07 09:31:10;;;;;;;48.03;22.77;;;;;;;-0.91;100.00;104355.84;5063306;28;20189;-65
2023/02/07 09:33:35;;;;;;;40.97;21.67;;;;;;;-0.89;100.00;104353.50;5064701;28;20193;-65
2023/02/07 09:36:01;;;;;;;45.87;22.80;;;;;;;-0.89;100.00;104345.97;5057245;28;20220;-64
2023/02/07 09:38:27;;;;;;;46.53;22.77;;;;;;;-0.93;100.00;104356.38;5062160;28;20189;-63
2023/02/07 09:40:53;;;;;;;47.30;23.60;;;;;;;-0.84;100.00;104350.84;5065325;28;20209;-64
2023/02/07 09:43:38;;;;;;;53.27;24.50;;;;;;;-1.11;100.00;104362.59;5065859;28;20287;-65
2023/02/07 09:46:15;;;;;;;45.43;22.17;;;;;;;-0.89;100.00;104356.94;5059291;28;20225;-64
2023/02/07 09:48:51;;;;;;;46.37;22.97;;;;;;;-0.90;100.00;104357.66;5064399;28;20208;-64
2023/02/07 09:51:22;;;;;;;45.67;22.93;;;;;;;-0.91;100.00;104360.88;5050680;28;20220;-65
2023/02/07 09:53:47;;;;;;;48.97;25.37;;;;;;;-0.81;100.00;104361.28;5061551;28;20189;-65
2023/02/07 09:56:18;;;;;;;46.00;23.57;;;;;;;-0.78;100.00;104365.78;5063454;28;20582;-64
2023/02/07 09:58:46;;;;;;;44.43;23.67;;;;;;;-0.67;100.00;104357.91;5065979;28;20547;-63
2023/02/07 10:01:18;;;;;;;46.93;23.87;;;;;;;-0.63;100.00;104352.53;5021725;28;20257;-64
2023/02/07 10:04:14;;;;;;;49.33;24.43;;;;;;;-0.59;100.00;104360.63;5063340;28;20188;-65
2023/02/07 10:06:44;;;;;;;49.30;24.43;;;;;;;-0.18;100.00;104347.94;5063248;28;20773;-65
2023/02/07 10:09:15;;;;;;;49.63;24.27;;;;;;;-0.12;100.00;104346.13;5040847;28;20219;-63
2023/02/07 10:11:52;;;;;;;44.63;23.43;;;;;;;-0.18;100.00;104353.84;5054066;28;20816;-64
2023/02/07 10:14:38;;;;;;;45.77;23.80;;;;;;;-0.21;100.00;104352.59;5030779;28;20190;-64
2023/02/07 10:17:09;;;;;;;48.20;24.63;;;;;;;-0.16;100.00;104344.88;5058338;28;20190;-64
2023/02/07 10:20:04;;;;;;;49.40;25.23;;;;;;;-0.06;100.00;104344.34;5058264;28;20188;-64
2023/02/07 10:22:51;;;;;;;49.13;25.47;;;;;;;0.06;100.00;104343.25;5054654;28;20189;-64
2023/02/07 10:25:34;;;;;;;47.40;25.23;;;;;;;0.32;100.00;104351.34;5035939;28;20216;-64
2023/02/07 10:28:15;;;;;;;50.57;26.43;;;;;;;-0.02;100.00;104346.50;5032663;28;20237;-64
2023/02/07 10:30:53;;;;;;;47.73;25.23;;;;;;;-0.07;100.00;104353.53;5062758;28;20268;-64
2023/02/07 10:33:23;;;;;;;53.00;26.93;;;;;;;-0.31;100.00;104355.63;5059589;28;20217;-61
2023/02/07 10:35:53;;;;;;;53.30;26.93;;;;;;;-0.16;100.00;104339.84;5053079;28;20248;-63
2023/02/07 10:38:32;;;;;;;56.00;27.33;;;;;;;0.04;100.00;104344.69;5051254;28;20181;-65
2023/02/07 10:41:26;;;;;;;54.63;26.87;;;;;;;0.05;100.00;104346.50;5062524;28;20697;-65
2023/02/07 10:43:52;;;;;;;54.33;26.63;;;;;;;0.21;100.00;104334.97;5056785;28;20189;-64
2023/02/07 10:46:20;;;;;;;54.57;27.37;;;;;;;0.25;100.00;104337.13;5045791;28;20583;-65
2023/02/07 10:48:46;;;;;;;52.17;26.77;;;;;;;0.38;100.00;104339.44;5058253;28;20188;-63
2023/02/07 10:51:33;;;;;;;48.23;26.23;;;;;;;0.52;100.00;104340.31;5040725;28;20204;-64
2023/02/07 10:54:07;;;;;;;52.77;26.90;;;;;;;4.19;100.00;104311.63;5050630;28;20198;-66
2023/02/07 10:56:41;;;;;;;49.63;26.43;;;;;;;4.12;100.00;104321.91;5039996;28;20209;-68
2023/02/07 10:59:37;;;;;;;44.63;24.83;;;;;;;1.95;100.00;104324.75;5047838;28;20516;-66
2023/02/07 11:02:27;;;;;;;47.60;24.77;;;;;;;1.38;100.00;104323.38;5028496;28;20225;-65
2023/02/07 11:04:55;;;;;;;48.40;26.80;;;;;;;1.42;100.00;104322.09;5040554;28;20242;-66
2023/02/07 11:07:21;;;;;;;45.67;25.40;;;;;;;1.45;100.00;104327.47;5059324;28;20741;-67
2023/02/07 11:09:47;;;;;;;48.67;26.73;;;;;;;1.13;100.00;104336.50;5067309;28;20639;-66
2023/02/07 11:12:18;;;;;;;55.00;29.50;;;;;;;1.30;100.00;104323.25;5062477;28;20662;-67